sensor_id;sensor_type;location;lat;lon;timestamp;P1;durP1;ratioP1;P2;durP2;ratioP2
5277;SDS011;2662;51.194;6.614;2023-05-10T00:02:13;12.90;;;7.90;;
5277;SDS011;2662;51.194;6.614;2023-05-10T00:04:41;14.23;;;8.50;;
5277;SDS011;2662;51.194;6.614;2023-05-10T00:07:11;14.33;;;8.53;;
5277;SDS011;2662;51.194;6.614;2023-05-10T00:09:39;14.83;;;9.03;;
5277;SDS011;2662;51.194;6.614;2023-05-10T00:12:06;15.30;;;8.23;;
5277;SDS011;2662;51.194;6.614;2023-05-10T00:14:34;16.73;;;9.40;;
5277;SDS011;2662;51.194;6.614;2023-05-10T00:17:02;15.33;;;9.27;;
5277;SDS011;2662;51.194;6.614;2023-05-10T00:19:30;13.97;;;8.60;;
5277;SDS011;2662;51.194;6.614;2023-05-10T00:21:57;19.23;;;9.53;;
5277;SDS011;2662;51.194;6.614;2023-05-10T00:24:26;17.87;;;9.87;;
5277;SDS011;2662;51.194;6.614;2023-05-10T00:26:55;15.30;;;9.30;;
5277;SDS011;2662;51.194;6.614;2023-05-10T00:29:22;14.03;;;8.80;;
5277;SDS011;2662;51.194;6.614;2023-05-10T00:31:51;15.53;;;9.27;;
5277;SDS011;2662;51.194;6.614;2023-05-10T00:34:18;14.20;;;8.93;;
5277;SDS011;2662;51.194;6.614;2023-05-10T00:36:46;17.13;;;9.67;;
5277;SDS011;2662;51.194;6.614;2023-05-10T00:39:13;21.43;;;10.30;;
5277;SDS011;2662;51.194;6.614;2023-05-10T00:41:42;16.17;;;9.27;;
5277;SDS011;2662;51.194;6.614;2023-05-10T00:44:11;15.63;;;9.57;;
5277;SDS011;2662;51.194;6.614;2023-05-10T00:46:39;18.57;;;9.27;;
5277;SDS011;2662;51.194;6.614;2023-05-10T00:49:07;15.30;;;8.87;;
5277;SDS011;2662;51.194;6.614;2023-05-10T00:51:36;15.57;;;8.43;;
5277;SDS011;2662;51.194;6.614;2023-05-10T00:54:04;16.00;;;9.20;;
5277;SDS011;2662;51.194;6.614;2023-05-10T00:56:32;19.37;;;10.23;;
5277;SDS011;2662;51.194;6.614;2023-05-10T00:59:02;20.33;;;8.90;;
5277;SDS011;2662;51.194;6.614;2023-05-10T01:01:31;17.73;;;9.33;;
5277;SDS011;2662;51.194;6.614;2023-05-10T01:04:01;14.23;;;8.50;;
5277;SDS011;2662;51.194;6.614;2023-05-10T01:06:29;13.10;;;7.80;;
5277;SDS011;2662;51.194;6.614;2023-05-10T01:08:57;24.00;;;9.30;;
5277;SDS011;2662;51.194;6.614;2023-05-10T01:11:25;13.70;;;8.60;;
5277;SDS011;2662;51.194;6.614;2023-05-10T01:13:54;18.53;;;8.90;;
5277;SDS011;2662;51.194;6.614;2023-05-10T01:16:26;13.27;;;7.13;;
5277;SDS011;2662;51.194;6.614;2023-05-10T01:18:56;9.90;;;6.13;;
5277;SDS011;2662;51.194;6.614;2023-05-10T01:21:31;8.50;;;5.33;;
5277;SDS011;2662;51.194;6.614;2023-05-10T01:27:28;7.90;;;5.17;;
5277;SDS011;2662;51.194;6.614;2023-05-10T01:30:46;7.70;;;4.93;;
5277;SDS011;2662;51.194;6.614;2023-05-10T01:33:32;10.00;;;4.97;;
5277;SDS011;2662;51.194;6.614;2023-05-10T01:36:09;12.40;;;5.47;;
5277;SDS011;2662;51.194;6.614;2023-05-10T01:38:43;10.37;;;5.90;;
5277;SDS011;2662;51.194;6.614;2023-05-10T01:41:17;9.87;;;5.33;;
5277;SDS011;2662;51.194;6.614;2023-05-10T01:43:52;8.37;;;4.53;;
5277;SDS011;2662;51.194;6.614;2023-05-10T01:46:27;10.43;;;4.80;;
5277;SDS011;2662;51.194;6.614;2023-05-10T01:49:01;8.80;;;4.73;;
5277;SDS011;2662;51.194;6.614;2023-05-10T01:51:34;7.23;;;4.57;;
5277;SDS011;2662;51.194;6.614;2023-05-10T01:54:19;5.87;;;4.40;;
5277;SDS011;2662;51.194;6.614;2023-05-10T01:56:50;12.13;;;4.17;;
5277;SDS011;2662;51.194;6.614;2023-05-10T01:59:24;8.90;;;4.73;;
5277;SDS011;2662;51.194;6.614;2023-05-10T02:01:57;8.40;;;4.97;;
5277;SDS011;2662;51.194;6.614;2023-05-10T02:04:27;10.33;;;4.00;;
5277;SDS011;2662;51.194;6.614;2023-05-10T02:06:55;8.30;;;4.67;;
5277;SDS011;2662;51.194;6.614;2023-05-10T02:09:24;4.90;;;4.07;;
5277;SDS011;2662;51.194;6.614;2023-05-10T02:11:54;10.43;;;4.90;;
5277;SDS011;2662;51.194;6.614;2023-05-10T02:14:23;6.90;;;4.80;;
5277;SDS011;2662;51.194;6.614;2023-05-10T02:16:52;13.40;;;5.37;;
5277;SDS011;2662;51.194;6.614;2023-05-10T02:19:23;7.67;;;4.73;;
5277;SDS011;2662;51.194;6.614;2023-05-10T02:21:53;9.27;;;5.10;;
5277;SDS011;2662;51.194;6.614;2023-05-10T02:24:23;8.23;;;5.43;;
5277;SDS011;2662;51.194;6.614;2023-05-10T02:26:53;9.40;;;4.57;;
5277;SDS011;2662;51.194;6.614;2023-05-10T02:29:23;10.03;;;4.93;;
5277;SDS011;2662;51.194;6.614;2023-05-10T02:31:52;14.33;;;5.13;;
5277;SDS011;2662;51.194;6.614;2023-05-10T02:34:21;6.10;;;5.20;;
5277;SDS011;2662;51.194;6.614;2023-05-10T02:36:49;6.30;;;5.13;;
5277;SDS011;2662;51.194;6.614;2023-05-10T02:39:19;7.90;;;4.97;;
5277;SDS011;2662;51.194;6.614;2023-05-10T02:41:48;10.93;;;5.20;;
5277;SDS011;2662;51.194;6.614;2023-05-10T02:44:17;4.83;;;4.10;;
5277;SDS011;2662;51.194;6.614;2023-05-10T02:46:46;7.87;;;4.93;;
5277;SDS011;2662;51.194;6.614;2023-05-10T02:49:15;16.43;;;5.50;;
5277;SDS011;2662;51.194;6.614;2023-05-10T02:51:43;11.53;;;5.70;;
5277;SDS011;2662;51.194;6.614;2023-05-10T02:54:18;13.10;;;5.40;;
5277;SDS011;2662;51.194;6.614;2023-05-10T02:56:51;7.00;;;4.43;;
5277;SDS011;2662;51.194;6.614;2023-05-10T02:59:24;6.07;;;4.70;;
5277;SDS011;2662;51.194;6.614;2023-05-10T03:01:52;9.03;;;5.10;;
5277;SDS011;2662;51.194;6.614;2023-05-10T03:04:21;8.10;;;4.80;;
5277;SDS011;2662;51.194;6.614;2023-05-10T03:06:50;7.43;;;5.23;;
5277;SDS011;2662;51.194;6.614;2023-05-10T03:09:20;6.33;;;5.03;;
5277;SDS011;2662;51.194;6.614;2023-05-10T03:11:51;8.47;;;5.20;;
5277;SDS011;2662;51.194;6.614;2023-05-10T03:14:28;9.27;;;5.07;;
5277;SDS011;2662;51.194;6.614;2023-05-10T03:17:08;9.70;;;5.10;;
5277;SDS011;2662;51.194;6.614;2023-05-10T03:19:43;11.20;;;5.20;;
5277;SDS011;2662;51.194;6.614;2023-05-10T03:22:19;11.73;;;6.87;;
5277;SDS011;2662;51.194;6.614;2023-05-10T03:24:55;12.70;;;6.23;;
5277;SDS011;2662;51.194;6.614;2023-05-10T03:27:26;15.77;;;6.87;;
5277;SDS011;2662;51.194;6.614;2023-05-10T03:29:55;9.87;;;6.30;;
5277;SDS011;2662;51.194;6.614;2023-05-10T03:32:23;12.33;;;7.23;;
5277;SDS011;2662;51.194;6.614;2023-05-10T03:34:52;14.20;;;7.57;;
5277;SDS011;2662;51.194;6.614;2023-05-10T03:37:19;16.77;;;8.07;;
5277;SDS011;2662;51.194;6.614;2023-05-10T03:39:47;17.90;;;7.87;;
5277;SDS011;2662;51.194;6.614;2023-05-10T03:42:17;18.80;;;8.43;;
5277;SDS011;2662;51.194;6.614;2023-05-10T03:44:46;15.50;;;7.60;;
5277;SDS011;2662;51.194;6.614;2023-05-10T03:47:15;13.87;;;7.80;;
5277;SDS011;2662;51.194;6.614;2023-05-10T03:49:42;16.13;;;8.93;;
5277;SDS011;2662;51.194;6.614;2023-05-10T03:52:10;11.87;;;8.67;;
5277;SDS011;2662;51.194;6.614;2023-05-10T03:54:37;17.67;;;8.70;;
5277;SDS011;2662;51.194;6.614;2023-05-10T03:57:03;16.70;;;9.57;;
5277;SDS011;2662;51.194;6.614;2023-05-10T03:59:32;20.63;;;9.97;;
5277;SDS011;2662;51.194;6.614;2023-05-10T04:01:58;21.97;;;11.33;;
5277;SDS011;2662;51.194;6.614;2023-05-10T04:04:28;20.40;;;10.97;;
5277;SDS011;2662;51.194;6.614;2023-05-10T04:06:55;26.97;;;11.97;;
5277;SDS011;2662;51.194;6.614;2023-05-10T04:09:22;22.73;;;11.83;;
5277;SDS011;2662;51.194;6.614;2023-05-10T04:11:49;25.20;;;12.40;;
5277;SDS011;2662;51.194;6.614;2023-05-10T04:14:16;32.37;;;13.40;;
5277;SDS011;2662;51.194;6.614;2023-05-10T04:16:44;28.30;;;12.90;;
5277;SDS011;2662;51.194;6.614;2023-05-10T04:19:11;27.70;;;14.03;;
5277;SDS011;2662;51.194;6.614;2023-05-10T04:21:37;32.50;;;13.93;;
5277;SDS011;2662;51.194;6.614;2023-05-10T04:24:04;31.87;;;14.07;;
5277;SDS011;2662;51.194;6.614;2023-05-10T04:26:31;28.37;;;14.13;;
5277;SDS011;2662;51.194;6.614;2023-05-10T04:28:58;32.03;;;14.47;;
5277;SDS011;2662;51.194;6.614;2023-05-10T04:31:25;29.57;;;14.80;;
5277;SDS011;2662;51.194;6.614;2023-05-10T04:33:54;34.87;;;15.23;;
5277;SDS011;2662;51.194;6.614;2023-05-10T04:36:20;28.77;;;14.70;;
5277;SDS011;2662;51.194;6.614;2023-05-10T04:38:47;31.70;;;14.80;;
5277;SDS011;2662;51.194;6.614;2023-05-10T04:41:14;37.27;;;14.17;;
5277;SDS011;2662;51.194;6.614;2023-05-10T04:43:41;34.07;;;15.37;;
5277;SDS011;2662;51.194;6.614;2023-05-10T04:46:08;31.80;;;14.17;;
5277;SDS011;2662;51.194;6.614;2023-05-10T04:48:34;28.03;;;14.00;;
5277;SDS011;2662;51.194;6.614;2023-05-10T04:51:03;31.83;;;13.60;;
5277;SDS011;2662;51.194;6.614;2023-05-10T04:53:31;29.00;;;12.63;;
5277;SDS011;2662;51.194;6.614;2023-05-10T04:55:59;27.43;;;12.50;;
5277;SDS011;2662;51.194;6.614;2023-05-10T04:58:27;26.83;;;13.33;;
5277;SDS011;2662;51.194;6.614;2023-05-10T05:00:55;25.30;;;14.10;;
5277;SDS011;2662;51.194;6.614;2023-05-10T05:03:23;28.50;;;12.40;;
5277;SDS011;2662;51.194;6.614;2023-05-10T05:05:51;22.90;;;11.87;;
5277;SDS011;2662;51.194;6.614;2023-05-10T05:08:20;24.97;;;11.77;;
5277;SDS011;2662;51.194;6.614;2023-05-10T05:10:49;22.40;;;11.60;;
5277;SDS011;2662;51.194;6.614;2023-05-10T05:13:17;21.73;;;11.27;;
5277;SDS011;2662;51.194;6.614;2023-05-10T05:15:45;21.30;;;12.33;;
5277;SDS011;2662;51.194;6.614;2023-05-10T05:18:14;29.57;;;11.43;;
5277;SDS011;2662;51.194;6.614;2023-05-10T05:20:41;24.70;;;10.70;;
5277;SDS011;2662;51.194;6.614;2023-05-10T05:23:09;18.67;;;10.33;;
5277;SDS011;2662;51.194;6.614;2023-05-10T05:25:39;19.57;;;10.30;;
5277;SDS011;2662;51.194;6.614;2023-05-10T05:28:07;23.80;;;11.40;;
5277;SDS011;2662;51.194;6.614;2023-05-10T05:30:34;20.13;;;11.70;;
5277;SDS011;2662;51.194;6.614;2023-05-10T05:33:03;21.07;;;10.70;;
5277;SDS011;2662;51.194;6.614;2023-05-10T05:35:32;24.13;;;11.63;;
5277;SDS011;2662;51.194;6.614;2023-05-10T05:37:59;30.60;;;10.40;;
5277;SDS011;2662;51.194;6.614;2023-05-10T05:40:27;22.17;;;11.63;;
5277;SDS011;2662;51.194;6.614;2023-05-10T05:42:58;21.43;;;10.20;;
5277;SDS011;2662;51.194;6.614;2023-05-10T05:45:27;20.23;;;10.53;;
5277;SDS011;2662;51.194;6.614;2023-05-10T05:47:54;18.00;;;10.70;;
5277;SDS011;2662;51.194;6.614;2023-05-10T05:50:22;21.53;;;9.93;;
5277;SDS011;2662;51.194;6.614;2023-05-10T05:52:50;24.57;;;10.43;;
5277;SDS011;2662;51.194;6.614;2023-05-10T05:55:19;23.93;;;10.80;;
5277;SDS011;2662;51.194;6.614;2023-05-10T05:57:47;23.40;;;10.10;;
5277;SDS011;2662;51.194;6.614;2023-05-10T06:00:18;31.57;;;11.10;;
5277;SDS011;2662;51.194;6.614;2023-05-10T06:02:46;24.20;;;11.23;;
5277;SDS011;2662;51.194;6.614;2023-05-10T06:05:13;28.50;;;11.23;;
5277;SDS011;2662;51.194;6.614;2023-05-10T06:07:41;19.83;;;10.23;;
5277;SDS011;2662;51.194;6.614;2023-05-10T06:10:09;24.27;;;11.17;;
5277;SDS011;2662;51.194;6.614;2023-05-10T06:12:37;23.33;;;11.00;;
5277;SDS011;2662;51.194;6.614;2023-05-10T06:15:07;23.30;;;11.20;;
5277;SDS011;2662;51.194;6.614;2023-05-10T06:17:37;26.00;;;11.10;;
5277;SDS011;2662;51.194;6.614;2023-05-10T06:20:06;19.97;;;10.00;;
5277;SDS011;2662;51.194;6.614;2023-05-10T06:22:35;25.80;;;11.57;;
5277;SDS011;2662;51.194;6.614;2023-05-10T06:25:02;24.87;;;11.27;;
5277;SDS011;2662;51.194;6.614;2023-05-10T06:27:29;32.00;;;11.83;;
5277;SDS011;2662;51.194;6.614;2023-05-10T06:29:57;33.43;;;12.50;;
5277;SDS011;2662;51.194;6.614;2023-05-10T06:32:25;26.60;;;13.07;;
5277;SDS011;2662;51.194;6.614;2023-05-10T06:34:55;28.07;;;11.33;;
5277;SDS011;2662;51.194;6.614;2023-05-10T06:37:22;28.33;;;13.30;;
5277;SDS011;2662;51.194;6.614;2023-05-10T06:39:50;33.67;;;12.67;;
5277;SDS011;2662;51.194;6.614;2023-05-10T06:42:18;24.13;;;11.77;;
5277;SDS011;2662;51.194;6.614;2023-05-10T06:44:45;22.30;;;11.30;;
5277;SDS011;2662;51.194;6.614;2023-05-10T06:47:13;29.23;;;11.77;;
5277;SDS011;2662;51.194;6.614;2023-05-10T06:49:40;23.30;;;11.60;;
5277;SDS011;2662;51.194;6.614;2023-05-10T06:52:10;25.50;;;11.07;;
5277;SDS011;2662;51.194;6.614;2023-05-10T06:54:38;21.93;;;10.97;;
5277;SDS011;2662;51.194;6.614;2023-05-10T06:57:05;22.90;;;10.73;;
5277;SDS011;2662;51.194;6.614;2023-05-10T06:59:32;18.70;;;10.23;;
5277;SDS011;2662;51.194;6.614;2023-05-10T07:02:01;20.77;;;10.60;;
5277;SDS011;2662;51.194;6.614;2023-05-10T07:04:28;23.07;;;10.10;;
5277;SDS011;2662;51.194;6.614;2023-05-10T07:06:56;21.90;;;10.27;;
5277;SDS011;2662;51.194;6.614;2023-05-10T07:09:25;19.17;;;10.57;;
5277;SDS011;2662;51.194;6.614;2023-05-10T07:11:52;21.97;;;10.10;;
5277;SDS011;2662;51.194;6.614;2023-05-10T07:14:20;19.50;;;10.00;;
5277;SDS011;2662;51.194;6.614;2023-05-10T07:16:47;23.07;;;10.27;;
5277;SDS011;2662;51.194;6.614;2023-05-10T07:19:15;25.30;;;11.97;;
5277;SDS011;2662;51.194;6.614;2023-05-10T07:21:42;41.00;;;14.83;;
5277;SDS011;2662;51.194;6.614;2023-05-10T07:24:09;39.97;;;15.43;;
5277;SDS011;2662;51.194;6.614;2023-05-10T07:26:38;37.23;;;16.80;;
5277;SDS011;2662;51.194;6.614;2023-05-10T07:29:05;36.40;;;16.43;;
5277;SDS011;2662;51.194;6.614;2023-05-10T07:31:32;44.23;;;17.03;;
5277;SDS011;2662;51.194;6.614;2023-05-10T07:34:00;51.23;;;19.30;;
5277;SDS011;2662;51.194;6.614;2023-05-10T07:36:27;43.10;;;18.33;;
5277;SDS011;2662;51.194;6.614;2023-05-10T07:38:55;45.63;;;18.70;;
5277;SDS011;2662;51.194;6.614;2023-05-10T07:41:23;41.23;;;18.93;;
5277;SDS011;2662;51.194;6.614;2023-05-10T07:43:52;40.90;;;19.17;;
5277;SDS011;2662;51.194;6.614;2023-05-10T07:46:19;39.07;;;18.53;;
5277;SDS011;2662;51.194;6.614;2023-05-10T07:48:47;39.33;;;18.30;;
5277;SDS011;2662;51.194;6.614;2023-05-10T07:51:14;30.90;;;15.70;;
5277;SDS011;2662;51.194;6.614;2023-05-10T07:53:43;40.00;;;17.20;;
5277;SDS011;2662;51.194;6.614;2023-05-10T07:56:21;39.60;;;17.20;;
5277;SDS011;2662;51.194;6.614;2023-05-10T07:58:51;41.10;;;19.23;;
5277;SDS011;2662;51.194;6.614;2023-05-10T08:01:21;46.13;;;20.43;;
5277;SDS011;2662;51.194;6.614;2023-05-10T08:03:49;40.00;;;19.40;;
5277;SDS011;2662;51.194;6.614;2023-05-10T08:06:18;40.80;;;18.50;;
5277;SDS011;2662;51.194;6.614;2023-05-10T08:08:46;52.07;;;21.67;;
5277;SDS011;2662;51.194;6.614;2023-05-10T08:11:15;46.17;;;20.63;;
5277;SDS011;2662;51.194;6.614;2023-05-10T08:13:43;48.13;;;20.60;;
5277;SDS011;2662;51.194;6.614;2023-05-10T08:16:13;46.80;;;20.63;;
5277;SDS011;2662;51.194;6.614;2023-05-10T08:18:41;42.93;;;20.67;;
5277;SDS011;2662;51.194;6.614;2023-05-10T08:21:10;42.83;;;20.30;;
5277;SDS011;2662;51.194;6.614;2023-05-10T08:23:38;43.90;;;19.27;;
5277;SDS011;2662;51.194;6.614;2023-05-10T08:26:06;41.27;;;18.60;;
5277;SDS011;2662;51.194;6.614;2023-05-10T08:28:34;41.50;;;19.80;;
5277;SDS011;2662;51.194;6.614;2023-05-10T08:31:02;35.37;;;17.47;;
5277;SDS011;2662;51.194;6.614;2023-05-10T08:33:33;32.40;;;17.53;;
5277;SDS011;2662;51.194;6.614;2023-05-10T08:36:00;44.93;;;17.90;;
5277;SDS011;2662;51.194;6.614;2023-05-10T08:38:28;31.73;;;16.90;;
5277;SDS011;2662;51.194;6.614;2023-05-10T08:40:55;33.50;;;16.67;;
5277;SDS011;2662;51.194;6.614;2023-05-10T08:43:25;34.20;;;16.00;;
5277;SDS011;2662;51.194;6.614;2023-05-10T08:45:54;27.63;;;14.93;;
5277;SDS011;2662;51.194;6.614;2023-05-10T08:48:23;28.07;;;15.37;;
5277;SDS011;2662;51.194;6.614;2023-05-10T08:50:54;28.50;;;14.60;;
5277;SDS011;2662;51.194;6.614;2023-05-10T08:53:23;24.97;;;13.03;;
5277;SDS011;2662;51.194;6.614;2023-05-10T08:55:52;24.00;;;13.47;;
5277;SDS011;2662;51.194;6.614;2023-05-10T08:58:21;27.17;;;13.80;;
5277;SDS011;2662;51.194;6.614;2023-05-10T09:00:50;26.47;;;13.50;;
5277;SDS011;2662;51.194;6.614;2023-05-10T09:03:18;23.70;;;13.30;;
5277;SDS011;2662;51.194;6.614;2023-05-10T09:05:47;25.93;;;13.40;;
5277;SDS011;2662;51.194;6.614;2023-05-10T09:08:17;22.73;;;12.90;;
5277;SDS011;2662;51.194;6.614;2023-05-10T09:10:46;23.80;;;12.97;;
5277;SDS011;2662;51.194;6.614;2023-05-10T09:13:15;22.83;;;12.20;;
5277;SDS011;2662;51.194;6.614;2023-05-10T09:15:44;22.07;;;11.97;;
5277;SDS011;2662;51.194;6.614;2023-05-10T09:18:12;24.87;;;13.20;;
5277;SDS011;2662;51.194;6.614;2023-05-10T09:20:40;20.23;;;11.90;;
5277;SDS011;2662;51.194;6.614;2023-05-10T09:23:08;21.43;;;11.73;;
5277;SDS011;2662;51.194;6.614;2023-05-10T09:25:39;21.80;;;11.97;;
5277;SDS011;2662;51.194;6.614;2023-05-10T09:28:09;20.40;;;10.87;;
5277;SDS011;2662;51.194;6.614;2023-05-10T09:30:37;22.13;;;12.20;;
5277;SDS011;2662;51.194;6.614;2023-05-10T09:33:06;17.40;;;10.30;;
5277;SDS011;2662;51.194;6.614;2023-05-10T09:35:33;19.27;;;10.40;;
5277;SDS011;2662;51.194;6.614;2023-05-10T09:38:02;15.03;;;9.37;;
5277;SDS011;2662;51.194;6.614;2023-05-10T09:40:31;16.83;;;9.67;;
5277;SDS011;2662;51.194;6.614;2023-05-10T09:43:02;14.90;;;9.73;;
5277;SDS011;2662;51.194;6.614;2023-05-10T09:45:32;19.77;;;11.10;;
5277;SDS011;2662;51.194;6.614;2023-05-10T09:48:00;22.90;;;11.60;;
5277;SDS011;2662;51.194;6.614;2023-05-10T09:50:29;19.40;;;10.37;;
5277;SDS011;2662;51.194;6.614;2023-05-10T09:53:00;24.33;;;11.60;;
5277;SDS011;2662;51.194;6.614;2023-05-10T09:55:37;22.30;;;11.80;;
5277;SDS011;2662;51.194;6.614;2023-05-10T09:58:08;26.70;;;11.47;;
5277;SDS011;2662;51.194;6.614;2023-05-10T10:00:36;21.17;;;11.77;;
5277;SDS011;2662;51.194;6.614;2023-05-10T10:03:05;25.40;;;11.50;;
5277;SDS011;2662;51.194;6.614;2023-05-10T10:05:39;22.30;;;11.70;;
5277;SDS011;2662;51.194;6.614;2023-05-10T10:08:09;23.17;;;11.67;;
5277;SDS011;2662;51.194;6.614;2023-05-10T10:10:37;20.43;;;11.07;;
5277;SDS011;2662;51.194;6.614;2023-05-10T10:13:07;19.83;;;10.90;;
5277;SDS011;2662;51.194;6.614;2023-05-10T10:15:36;18.70;;;9.23;;
5277;SDS011;2662;51.194;6.614;2023-05-10T10:18:04;18.73;;;10.60;;
5277;SDS011;2662;51.194;6.614;2023-05-10T10:20:33;22.60;;;10.30;;
5277;SDS011;2662;51.194;6.614;2023-05-10T10:22:59;20.60;;;10.50;;
5277;SDS011;2662;51.194;6.614;2023-05-10T10:25:27;19.30;;;10.93;;
5277;SDS011;2662;51.194;6.614;2023-05-10T10:28:01;17.67;;;10.53;;
5277;SDS011;2662;51.194;6.614;2023-05-10T10:30:43;22.10;;;11.23;;
5277;SDS011;2662;51.194;6.614;2023-05-10T10:36:06;23.00;;;12.23;;
5277;SDS011;2662;51.194;6.614;2023-05-10T10:38:37;20.23;;;11.73;;
5277;SDS011;2662;51.194;6.614;2023-05-10T10:41:28;20.77;;;12.60;;
5277;SDS011;2662;51.194;6.614;2023-05-10T10:47:09;19.27;;;11.10;;
5277;SDS011;2662;51.194;6.614;2023-05-10T10:49:50;24.97;;;12.47;;
5277;SDS011;2662;51.194;6.614;2023-05-10T10:52:30;21.37;;;11.43;;
5277;SDS011;2662;51.194;6.614;2023-05-10T10:55:00;22.57;;;11.73;;
5277;SDS011;2662;51.194;6.614;2023-05-10T10:57:42;21.27;;;11.97;;
5277;SDS011;2662;51.194;6.614;2023-05-10T11:00:23;18.60;;;11.10;;
5277;SDS011;2662;51.194;6.614;2023-05-10T11:02:54;17.67;;;11.23;;
5277;SDS011;2662;51.194;6.614;2023-05-10T11:08:17;19.47;;;11.70;;
5277;SDS011;2662;51.194;6.614;2023-05-10T11:11:02;23.23;;;11.60;;
5277;SDS011;2662;51.194;6.614;2023-05-10T11:13:33;18.13;;;11.07;;
5277;SDS011;2662;51.194;6.614;2023-05-10T11:18:59;19.33;;;11.60;;
5277;SDS011;2662;51.194;6.614;2023-05-10T11:21:29;20.70;;;12.87;;
5277;SDS011;2662;51.194;6.614;2023-05-10T11:23:58;21.47;;;12.47;;
5277;SDS011;2662;51.194;6.614;2023-05-10T11:26:31;19.47;;;12.23;;
5277;SDS011;2662;51.194;6.614;2023-05-10T11:29:00;17.47;;;11.53;;
5277;SDS011;2662;51.194;6.614;2023-05-10T11:31:31;18.93;;;11.77;;
5277;SDS011;2662;51.194;6.614;2023-05-10T11:33:59;23.10;;;12.67;;
5277;SDS011;2662;51.194;6.614;2023-05-10T11:36:28;17.87;;;11.43;;
5277;SDS011;2662;51.194;6.614;2023-05-10T11:39:01;21.70;;;12.67;;
5277;SDS011;2662;51.194;6.614;2023-05-10T11:41:30;24.17;;;13.47;;
5277;SDS011;2662;51.194;6.614;2023-05-10T11:43:58;23.77;;;13.60;;
5277;SDS011;2662;51.194;6.614;2023-05-10T11:46:26;23.10;;;13.70;;
5277;SDS011;2662;51.194;6.614;2023-05-10T11:48:57;26.03;;;12.93;;
5277;SDS011;2662;51.194;6.614;2023-05-10T11:51:29;24.03;;;15.20;;
5277;SDS011;2662;51.194;6.614;2023-05-10T11:53:59;24.53;;;14.90;;
5277;SDS011;2662;51.194;6.614;2023-05-10T11:56:26;24.10;;;15.23;;
5277;SDS011;2662;51.194;6.614;2023-05-10T11:58:54;26.10;;;16.70;;
5277;SDS011;2662;51.194;6.614;2023-05-10T12:01:22;35.53;;;16.90;;
5277;SDS011;2662;51.194;6.614;2023-05-10T12:03:51;27.20;;;15.97;;
5277;SDS011;2662;51.194;6.614;2023-05-10T12:06:25;25.77;;;16.23;;
5277;SDS011;2662;51.194;6.614;2023-05-10T12:08:53;26.50;;;16.07;;
5277;SDS011;2662;51.194;6.614;2023-05-10T12:11:24;31.60;;;16.43;;
5277;SDS011;2662;51.194;6.614;2023-05-10T12:13:52;24.67;;;14.30;;
5277;SDS011;2662;51.194;6.614;2023-05-10T12:16:20;24.37;;;15.63;;
5277;SDS011;2662;51.194;6.614;2023-05-10T12:18:49;24.20;;;14.53;;
5277;SDS011;2662;51.194;6.614;2023-05-10T12:21:18;24.50;;;14.50;;
5277;SDS011;2662;51.194;6.614;2023-05-10T12:23:48;20.90;;;13.27;;
5277;SDS011;2662;51.194;6.614;2023-05-10T12:26:17;21.83;;;13.13;;
5277;SDS011;2662;51.194;6.614;2023-05-10T12:28:47;22.30;;;12.83;;
5277;SDS011;2662;51.194;6.614;2023-05-10T12:31:15;20.03;;;11.50;;
5277;SDS011;2662;51.194;6.614;2023-05-10T12:33:43;18.47;;;12.30;;
5277;SDS011;2662;51.194;6.614;2023-05-10T12:36:13;20.00;;;12.93;;
5277;SDS011;2662;51.194;6.614;2023-05-10T12:38:41;25.10;;;13.63;;
5277;SDS011;2662;51.194;6.614;2023-05-10T12:41:15;21.30;;;11.90;;
5277;SDS011;2662;51.194;6.614;2023-05-10T12:43:42;19.90;;;11.37;;
5277;SDS011;2662;51.194;6.614;2023-05-10T12:46:12;19.90;;;11.33;;
5277;SDS011;2662;51.194;6.614;2023-05-10T12:48:41;19.80;;;11.10;;
5277;SDS011;2662;51.194;6.614;2023-05-10T12:51:09;16.33;;;11.37;;
5277;SDS011;2662;51.194;6.614;2023-05-10T12:53:38;22.27;;;12.67;;
5277;SDS011;2662;51.194;6.614;2023-05-10T12:56:06;19.50;;;11.10;;
5277;SDS011;2662;51.194;6.614;2023-05-10T12:58:34;18.53;;;12.20;;
5277;SDS011;2662;51.194;6.614;2023-05-10T13:01:02;18.00;;;11.40;;
5277;SDS011;2662;51.194;6.614;2023-05-10T13:03:30;19.80;;;12.27;;
5277;SDS011;2662;51.194;6.614;2023-05-10T13:05:57;21.23;;;12.57;;
5277;SDS011;2662;51.194;6.614;2023-05-10T13:08:24;21.57;;;11.73;;
5277;SDS011;2662;51.194;6.614;2023-05-10T13:10:51;18.63;;;11.80;;
5277;SDS011;2662;51.194;6.614;2023-05-10T13:13:18;17.80;;;11.50;;
5277;SDS011;2662;51.194;6.614;2023-05-10T13:15:47;18.07;;;10.73;;
5277;SDS011;2662;51.194;6.614;2023-05-10T13:18:14;16.80;;;11.60;;
5277;SDS011;2662;51.194;6.614;2023-05-10T13:20:40;14.70;;;10.00;;
5277;SDS011;2662;51.194;6.614;2023-05-10T13:23:09;16.83;;;10.10;;
5277;SDS011;2662;51.194;6.614;2023-05-10T13:25:36;18.17;;;11.17;;
5277;SDS011;2662;51.194;6.614;2023-05-10T13:28:02;15.17;;;10.33;;
5277;SDS011;2662;51.194;6.614;2023-05-10T13:30:29;16.87;;;10.90;;
5277;SDS011;2662;51.194;6.614;2023-05-10T13:32:57;15.37;;;9.90;;
5277;SDS011;2662;51.194;6.614;2023-05-10T13:35:24;18.60;;;10.50;;
5277;SDS011;2662;51.194;6.614;2023-05-10T13:37:51;14.03;;;9.00;;
5277;SDS011;2662;51.194;6.614;2023-05-10T13:40:21;12.57;;;8.70;;
5277;SDS011;2662;51.194;6.614;2023-05-10T13:42:48;10.33;;;7.73;;
5277;SDS011;2662;51.194;6.614;2023-05-10T13:45:15;10.53;;;7.10;;
5277;SDS011;2662;51.194;6.614;2023-05-10T13:47:42;14.37;;;8.60;;
5277;SDS011;2662;51.194;6.614;2023-05-10T13:50:11;12.80;;;8.10;;
5277;SDS011;2662;51.194;6.614;2023-05-10T13:52:39;12.57;;;7.93;;
5277;SDS011;2662;51.194;6.614;2023-05-10T13:55:07;14.40;;;7.87;;
5277;SDS011;2662;51.194;6.614;2023-05-10T13:57:35;10.43;;;7.30;;
5277;SDS011;2662;51.194;6.614;2023-05-10T14:00:03;10.37;;;7.77;;
5277;SDS011;2662;51.194;6.614;2023-05-10T14:02:32;13.20;;;7.50;;
5277;SDS011;2662;51.194;6.614;2023-05-10T14:04:59;14.33;;;7.87;;
5277;SDS011;2662;51.194;6.614;2023-05-10T14:07:27;14.30;;;7.30;;
5277;SDS011;2662;51.194;6.614;2023-05-10T14:09:55;10.87;;;7.20;;
5277;SDS011;2662;51.194;6.614;2023-05-10T14:12:22;10.40;;;7.70;;
5277;SDS011;2662;51.194;6.614;2023-05-10T14:14:50;16.37;;;8.00;;
5277;SDS011;2662;51.194;6.614;2023-05-10T14:17:17;11.17;;;7.00;;
5277;SDS011;2662;51.194;6.614;2023-05-10T14:19:45;14.67;;;7.30;;
5277;SDS011;2662;51.194;6.614;2023-05-10T14:22:13;10.23;;;7.20;;
5277;SDS011;2662;51.194;6.614;2023-05-10T14:24:42;7.20;;;6.07;;
5277;SDS011;2662;51.194;6.614;2023-05-10T14:27:12;11.77;;;6.63;;
5277;SDS011;2662;51.194;6.614;2023-05-10T14:29:40;8.40;;;5.50;;
5277;SDS011;2662;51.194;6.614;2023-05-10T14:32:08;8.80;;;5.47;;
5277;SDS011;2662;51.194;6.614;2023-05-10T14:34:36;7.60;;;5.60;;
5277;SDS011;2662;51.194;6.614;2023-05-10T14:37:03;7.20;;;5.50;;
5277;SDS011;2662;51.194;6.614;2023-05-10T14:39:31;6.27;;;5.27;;
5277;SDS011;2662;51.194;6.614;2023-05-10T14:42:00;8.23;;;5.03;;
5277;SDS011;2662;51.194;6.614;2023-05-10T14:44:29;12.00;;;6.63;;
5277;SDS011;2662;51.194;6.614;2023-05-10T14:46:56;10.23;;;6.40;;
5277;SDS011;2662;51.194;6.614;2023-05-10T14:49:23;9.07;;;6.40;;
5277;SDS011;2662;51.194;6.614;2023-05-10T14:51:51;9.53;;;6.50;;
5277;SDS011;2662;51.194;6.614;2023-05-10T14:54:19;11.33;;;6.10;;
5277;SDS011;2662;51.194;6.614;2023-05-10T14:56:46;11.90;;;6.83;;
5277;SDS011;2662;51.194;6.614;2023-05-10T14:59:17;11.90;;;7.03;;
5277;SDS011;2662;51.194;6.614;2023-05-10T15:01:45;12.90;;;7.50;;
5277;SDS011;2662;51.194;6.614;2023-05-10T15:04:12;6.33;;;5.43;;
5277;SDS011;2662;51.194;6.614;2023-05-10T15:06:41;11.27;;;6.60;;
5277;SDS011;2662;51.194;6.614;2023-05-10T15:09:09;14.43;;;6.60;;
5277;SDS011;2662;51.194;6.614;2023-05-10T15:11:36;10.93;;;6.87;;
5277;SDS011;2662;51.194;6.614;2023-05-10T15:14:04;12.83;;;7.23;;
5277;SDS011;2662;51.194;6.614;2023-05-10T15:16:33;11.03;;;6.63;;
5277;SDS011;2662;51.194;6.614;2023-05-10T15:19:01;13.07;;;7.60;;
5277;SDS011;2662;51.194;6.614;2023-05-10T15:21:29;11.90;;;7.27;;
5277;SDS011;2662;51.194;6.614;2023-05-10T15:24:00;13.03;;;7.40;;